createdAt,value
2022-07-31T00:00:28.251Z,496.10
2022-07-31T00:02:56.579Z,493.17
2022-07-31T00:05:26.768Z,497.67
2022-07-31T00:07:54.871Z,485.50
2022-07-31T00:10:22.765Z,489.27
2022-07-31T00:12:50.799Z,488.40
2022-07-31T00:15:20.288Z,482.77
2022-07-31T00:17:48.291Z,474.48
2022-07-31T00:20:17.775Z,458.60
2022-07-31T00:22:47.122Z,482.15
2022-07-31T00:25:16.130Z,461.15
2022-07-31T00:27:43.865Z,466.15
2022-07-31T00:30:13.392Z,468.10
2022-07-31T00:32:42.147Z,462.88
2022-07-31T00:35:14.331Z,475.65
2022-07-31T00:37:43.310Z,311.17
2022-07-31T00:40:15.729Z,491.45
2022-07-31T00:42:44.088Z,354.67
2022-07-31T00:45:13.455Z,505.60
2022-07-31T00:47:41.694Z,513.47
2022-07-31T00:50:10.240Z,500.25
2022-07-31T00:52:38.828Z,506.70
2022-07-31T00:55:06.795Z,516.58
2022-07-31T00:57:34.420Z,512.85
2022-07-31T01:00:01.933Z,508.15
2022-07-31T01:02:30.486Z,510.33
2022-07-31T01:04:57.834Z,507.02
2022-07-31T01:07:26.109Z,503.17
2022-07-31T01:09:54.681Z,503.83
2022-07-31T01:12:30.422Z,501.85
2022-07-31T01:15:03.408Z,504.13
2022-07-31T01:17:32.195Z,500.27
2022-07-31T01:20:01.840Z,496.45
2022-07-31T01:23:06.809Z,498.83
2022-07-31T01:25:50.459Z,498.20
2022-07-31T01:29:02.434Z,495.92
2022-07-31T01:31:50.059Z,489.02
2022-07-31T01:34:48.272Z,491.15
2022-07-31T01:37:32.684Z,491.52
2022-07-31T01:40:12.142Z,491.45
2022-07-31T01:42:43.269Z,496.42
2022-07-31T01:45:14.601Z,499.77
2022-07-31T01:47:44.101Z,497.30
2022-07-31T01:50:42.543Z,495.30
2022-07-31T01:53:01.167Z,494.50
2022-07-31T01:55:31.336Z,499.85
2022-07-31T01:58:22.649Z,497.88
2022-07-31T02:00:52.878Z,494.58
2022-07-31T02:03:44.331Z,494.55
2022-07-31T02:06:19.308Z,493.90
2022-07-31T02:08:50.338Z,493.33
2022-07-31T02:11:20.352Z,494.33
2022-07-31T02:13:49.781Z,469.73
2022-07-31T02:16:18.714Z,488.13
2022-07-31T02:18:50.814Z,490.48
2022-07-31T02:21:26.331Z,470.88
2022-07-31T02:23:54.441Z,463.38
2022-07-31T02:26:23.139Z,466.50
2022-07-31T02:28:52.774Z,461.98
2022-07-31T02:31:23.225Z,462.23
2022-07-31T02:33:52.806Z,465.05
2022-07-31T02:36:22.806Z,458.45
2022-07-31T02:38:53.099Z,462.95
2022-07-31T02:41:22.100Z,457.98
2022-07-31T02:43:50.113Z,491.90
2022-07-31T02:46:23.285Z,489.25
2022-07-31T02:48:52.455Z,490.20
2022-07-31T02:51:23.731Z,486.45
2022-07-31T02:53:52.512Z,497.83
2022-07-31T02:56:23.583Z,490.27
2022-07-31T02:58:52.991Z,488.98
2022-07-31T03:01:25.672Z,343.30
2022-07-31T03:03:53.933Z,493.65
2022-07-31T03:06:21.289Z,494.05
2022-07-31T03:08:48.840Z,500.52
2022-07-31T03:11:20.513Z,499.55
2022-07-31T03:13:48.619Z,488.73
2022-07-31T03:16:17.203Z,487.85
2022-07-31T03:18:47.084Z,498.75
2022-07-31T03:21:14.866Z,491.85
2022-07-31T03:23:43.146Z,495.98
2022-07-31T03:26:18.447Z,497.08
2022-07-31T03:28:46.160Z,493.00
2022-07-31T03:31:13.657Z,497.98
2022-07-31T03:33:42.806Z,493.65
2022-07-31T03:36:10.507Z,497.38
2022-07-31T03:38:39.067Z,490.45
2022-07-31T03:41:16.490Z,494.23
2022-07-31T03:43:47.887Z,489.63
2022-07-31T03:46:24.482Z,479.80
2022-07-31T03:48:53.122Z,487.05
2022-07-31T03:51:22.081Z,486.35
2022-07-31T03:53:50.211Z,490.00
2022-07-31T03:56:52.136Z,494.05
2022-07-31T03:59:21.575Z,490.25
2022-07-31T04:01:57.641Z,484.05
2022-07-31T04:04:59.515Z,480.13
2022-07-31T04:07:27.264Z,461.75
2022-07-31T04:09:54.710Z,496.27
2022-07-31T04:12:22.907Z,482.20
2022-07-31T04:14:50.539Z,506.40
2022-07-31T04:17:19.422Z,495.63
2022-07-31T04:19:46.942Z,495.75
2022-07-31T04:22:15.324Z,488.38
2022-07-31T04:24:44.413Z,498.58
2022-07-31T04:27:30.668Z,512.40
2022-07-31T04:29:58.725Z,530.40
2022-07-31T04:32:26.159Z,535.85
2022-07-31T04:34:58.397Z,542.90
2022-07-31T04:37:25.864Z,544.45
2022-07-31T04:39:53.498Z,549.00
2022-07-31T04:42:21.475Z,537.35
2022-07-31T04:44:49.392Z,543.50
2022-07-31T04:47:16.850Z,536.95
2022-07-31T04:49:49.527Z,540.00
2022-07-31T04:52:18.051Z,541.95
2022-07-31T04:54:47.524Z,539.30
2022-07-31T04:57:21.248Z,544.03
2022-07-31T05:05:01.856Z,531.42
2022-07-31T05:07:35.915Z,531.33
2022-07-31T05:10:09.288Z,535.63
2022-07-31T05:12:36.942Z,516.17
2022-07-31T05:15:06.312Z,501.30
2022-07-31T05:17:33.787Z,493.75
2022-07-31T05:20:21.157Z,482.77
2022-07-31T05:23:06.683Z,447.73
2022-07-31T05:25:52.942Z,439.30
2022-07-31T05:28:29.674Z,464.67
2022-07-31T05:30:58.574Z,477.95
2022-07-31T05:33:26.838Z,463.38
2022-07-31T05:35:58.388Z,461.70
2022-07-31T05:38:25.807Z,457.13
2022-07-31T05:41:19.414Z,462.77
2022-07-31T05:44:19.138Z,457.55
2022-07-31T05:49:17.853Z,494.35
2022-07-31T05:51:54.253Z,499.20
2022-07-31T05:54:22.723Z,508.20
2022-07-31T05:57:10.263Z,494.90
2022-07-31T05:59:42.196Z,477.80
2022-07-31T06:02:09.531Z,470.70
2022-07-31T06:04:56.870Z,474.95
2022-07-31T06:07:24.513Z,467.65
2022-07-31T06:09:51.959Z,489.38
2022-07-31T06:12:19.839Z,488.00
2022-07-31T06:14:47.154Z,484.55
2022-07-31T06:17:44.940Z,492.52
2022-07-31T06:20:29.053Z,489.90
2022-07-31T06:22:56.928Z,487.48
2022-07-31T06:25:31.939Z,488.60
2022-07-31T06:28:10.556Z,501.17
2022-07-31T06:30:40.852Z,503.63
2022-07-31T06:33:08.741Z,499.17
2022-07-31T06:35:44.398Z,494.50
2022-07-31T06:38:32.760Z,493.15
2022-07-31T06:41:47.659Z,498.75
2022-07-31T06:44:32.069Z,497.77
2022-07-31T06:47:19.950Z,504.08
2022-07-31T06:49:59.079Z,494.60
2022-07-31T06:52:28.493Z,498.90
2022-07-31T06:54:56.410Z,543.88
2022-07-31T06:57:24.015Z,538.15
2022-07-31T06:59:51.613Z,548.20
2022-07-31T07:02:19.067Z,540.70
2022-07-31T07:05:04.646Z,525.95
2022-07-31T07:07:38.001Z,547.20
2022-07-31T07:10:08.238Z,540.38
2022-07-31T07:15:33.591Z,537.08
2022-07-31T07:18:03.291Z,542.53
2022-07-31T07:20:37.292Z,563.63
2022-07-31T07:23:04.818Z,598.90
2022-07-31T07:25:55.359Z,655.53
2022-07-31T07:28:30.209Z,626.08
2022-07-31T07:31:04.062Z,606.28
2022-07-31T07:33:41.657Z,589.67
2022-07-31T07:36:24.057Z,560.90
2022-07-31T07:38:56.725Z,526.05
2022-07-31T07:41:25.396Z,489.52
2022-07-31T07:43:53.561Z,488.00
2022-07-31T07:46:25.954Z,483.80
2022-07-31T07:48:59.132Z,458.65
2022-07-31T07:51:35.546Z,482.05
2022-07-31T07:54:21.512Z,454.63
2022-07-31T07:57:07.419Z,451.83
2022-07-31T07:59:54.021Z,447.98
2022-07-31T08:03:46.698Z,444.35
2022-07-31T08:05:36.196Z,437.77
2022-07-31T08:08:03.967Z,436.33
2022-07-31T08:10:43.424Z,427.73
2022-07-31T08:13:16.427Z,434.92
2022-07-31T08:16:02.451Z,428.88
2022-07-31T08:18:54.564Z,439.38
2022-07-31T08:21:22.645Z,435.63
2022-07-31T08:23:50.009Z,436.92
2022-07-31T08:26:18.794Z,434.50
2022-07-31T08:28:50.760Z,442.42
2022-07-31T08:31:22.840Z,435.15
2022-07-31T08:34:10.575Z,440.48
2022-07-31T08:36:38.767Z,445.20
2022-07-31T08:39:06.604Z,433.15
2022-07-31T08:41:52.568Z,441.00
2022-07-31T08:44:26.483Z,423.60
2022-07-31T08:46:58.057Z,429.67
2022-07-31T08:49:26.642Z,427.40
2022-07-31T08:51:56.474Z,424.05
2022-07-31T08:54:51.981Z,434.17
2022-07-31T08:57:20.716Z,436.00
2022-07-31T08:59:52.596Z,434.60
2022-07-31T09:02:20.255Z,431.83
2022-07-31T09:05:17.131Z,436.00
2022-07-31T09:07:45.018Z,446.40
2022-07-31T09:10:26.766Z,442.35
2022-07-31T09:12:57.566Z,447.70
2022-07-31T09:15:29.444Z,450.20
2022-07-31T09:17:58.885Z,416.63
2022-07-31T09:20:29.607Z,445.98
2022-07-31T09:23:07.664Z,456.95
2022-07-31T09:25:39.131Z,450.48
2022-07-31T09:28:07.732Z,448.15
2022-07-31T09:30:35.876Z,451.15
2022-07-31T09:33:46.106Z,455.40
2022-07-31T09:36:32.996Z,454.20
2022-07-31T09:39:15.039Z,448.70
2022-07-31T09:42:16.979Z,459.77
2022-07-31T09:45:05.811Z,467.58
2022-07-31T09:47:34.421Z,476.67
2022-07-31T09:50:06.105Z,467.63
2022-07-31T09:52:34.012Z,471.92
2022-07-31T09:55:16.584Z,472.38
2022-07-31T09:57:55.641Z,477.20
2022-07-31T10:00:24.868Z,484.92
2022-07-31T10:02:55.554Z,488.73
2022-07-31T10:05:27.138Z,493.17
2022-07-31T10:08:00.673Z,502.83
2022-07-31T10:10:49.898Z,484.83
2022-07-31T10:13:26.264Z,480.50
2022-07-31T10:15:59.761Z,474.95
2022-07-31T10:18:55.574Z,469.05
2022-07-31T10:21:58.114Z,470.50
2022-07-31T10:24:33.813Z,467.92
2022-07-31T10:27:07.978Z,480.95
2022-07-31T10:29:41.809Z,474.63
2022-07-31T10:32:10.348Z,492.50
2022-07-31T10:35:07.797Z,490.30
2022-07-31T10:38:30.531Z,498.98
2022-07-31T10:41:36.711Z,499.20
2022-07-31T10:44:29.851Z,512.67
2022-07-31T10:47:16.731Z,515.67
2022-07-31T10:50:05.915Z,503.75
2022-07-31T10:52:45.468Z,475.65
2022-07-31T10:55:18.494Z,493.45
2022-07-31T10:58:13.097Z,502.42
2022-07-31T11:01:05.846Z,498.92
2022-07-31T11:03:41.967Z,501.05
2022-07-31T11:06:42.184Z,492.15
2022-07-31T11:09:29.440Z,487.27
2022-07-31T11:12:18.913Z,512.95
2022-07-31T11:15:23.974Z,524.30
2022-07-31T11:18:21.268Z,490.83
2022-07-31T11:21:38.236Z,491.30
2022-07-31T11:24:02.980Z,481.08
2022-07-31T11:26:33.421Z,493.38
2022-07-31T11:30:00.739Z,466.90
2022-07-31T11:32:17.033Z,473.90
2022-07-31T11:34:55.232Z,474.92
2022-07-31T11:37:57.176Z,466.60
2022-07-31T11:40:22.416Z,476.85
2022-07-31T11:43:23.477Z,475.23
2022-07-31T11:45:52.925Z,456.88
2022-07-31T11:48:21.922Z,481.92
2022-07-31T11:50:50.866Z,469.63
2022-07-31T11:53:20.036Z,537.90
2022-07-31T11:56:00.948Z,454.17
2022-07-31T11:58:29.933Z,451.77
2022-07-31T12:01:02.350Z,486.38
2022-07-31T12:03:39.444Z,469.38
2022-07-31T12:06:08.980Z,461.23
2022-07-31T12:08:38.444Z,471.08
2022-07-31T12:11:09.635Z,472.65
2022-07-31T12:13:39.660Z,464.48
2022-07-31T12:16:12.252Z,457.40
2022-07-31T12:18:58.875Z,465.98
2022-07-31T12:21:38.059Z,467.17
2022-07-31T12:24:15.574Z,472.40
2022-07-31T12:26:59.502Z,464.30
2022-07-31T12:29:35.233Z,1201.47
2022-07-31T12:32:03.869Z,1089.15
2022-07-31T12:34:39.842Z,1258.20
2022-07-31T12:37:11.897Z,1274.30
2022-07-31T12:40:00.194Z,1275.22
2022-07-31T12:42:32.417Z,1279.78
2022-07-31T12:45:19.642Z,1236.30
2022-07-31T12:47:51.100Z,1244.82
2022-07-31T12:50:21.057Z,1237.43
2022-07-31T12:52:48.960Z,1255.28
2022-07-31T12:55:18.049Z,1258.15
2022-07-31T12:57:50.872Z,1250.93
2022-07-31T13:00:22.865Z,1242.65
2022-07-31T13:02:54.694Z,1195.18
2022-07-31T13:05:26.709Z,1203.93
2022-07-31T13:07:54.622Z,1213.75
2022-07-31T13:10:24.945Z,1207.20
2022-07-31T13:12:58.608Z,1215.50
2022-07-31T13:15:32.097Z,1199.75
2022-07-31T13:18:05.294Z,1201.88
2022-07-31T13:23:02.997Z,1188.90
2022-07-31T13:25:33.533Z,1185.47
2022-07-31T13:28:01.272Z,1180.93
2022-07-31T13:30:29.132Z,1173.10
2022-07-31T13:32:56.613Z,1184.50
2022-07-31T13:35:28.395Z,1189.43
2022-07-31T13:37:56.969Z,1164.73
2022-07-31T13:40:43.840Z,1175.53
2022-07-31T13:43:11.405Z,1171.95
2022-07-31T13:45:38.934Z,1163.97
2022-07-31T13:48:09.563Z,1163.70
2022-07-31T13:50:39.923Z,1146.13
2022-07-31T13:53:08.346Z,1152.30
2022-07-31T13:55:36.449Z,1151.38
2022-07-31T13:58:05.347Z,1147.18
2022-07-31T14:00:32.874Z,1140.45
2022-07-31T14:03:00.463Z,1138.00
2022-07-31T14:05:28.299Z,1144.18
2022-07-31T14:07:56.342Z,1134.00
2022-07-31T14:10:49.981Z,1124.28
2022-07-31T14:13:19.467Z,1123.90
2022-07-31T14:15:48.055Z,1123.47
2022-07-31T14:18:15.820Z,1123.78
2022-07-31T14:20:43.490Z,1121.43
2022-07-31T14:23:11.191Z,1123.30
2022-07-31T14:25:39.421Z,1118.22
2022-07-31T14:28:07.990Z,1113.32
2022-07-31T14:30:37.383Z,1111.60
2022-07-31T14:33:05.346Z,1107.35
2022-07-31T14:35:37.420Z,1109.97
2022-07-31T14:38:05.158Z,1112.07
2022-07-31T14:40:32.951Z,1100.03
2022-07-31T14:43:00.438Z,1100.80
2022-07-31T14:45:28.061Z,1097.90
2022-07-31T14:47:56.961Z,1097.57
2022-07-31T14:50:24.627Z,1092.80
2022-07-31T14:52:52.217Z,1092.93
2022-07-31T14:55:23.642Z,1100.72
2022-07-31T14:57:52.287Z,1096.30
2022-07-31T15:00:20.004Z,1093.60
2022-07-31T15:02:49.538Z,1099.45
2022-07-31T15:06:51.680Z,1101.30
2022-07-31T15:08:05.372Z,1096.22
2022-07-31T15:10:32.964Z,1090.88
2022-07-31T15:13:00.453Z,1089.05
2022-07-31T15:15:28.633Z,1084.32
2022-07-31T15:17:56.546Z,1088.88
2022-07-31T15:20:28.886Z,1085.93
2022-07-31T15:23:00.793Z,1088.70
2022-07-31T15:25:28.619Z,1083.45
2022-07-31T15:27:56.255Z,1084.88
2022-07-31T15:30:24.054Z,1082.30
2022-07-31T15:32:53.378Z,1086.90
2022-07-31T15:35:20.776Z,1077.60
2022-07-31T15:37:49.708Z,1074.90
2022-07-31T15:40:17.467Z,1081.22
2022-07-31T15:42:46.232Z,1079.68
2022-07-31T15:45:15.641Z,1077.55
2022-07-31T15:47:46.507Z,1088.93
2022-07-31T15:50:16.776Z,1091.70
2022-07-31T15:52:45.888Z,1088.72
2022-07-31T15:55:13.692Z,1084.57
2022-07-31T15:57:41.922Z,1084.30
2022-07-31T16:00:14.269Z,1076.53
2022-07-31T16:02:43.090Z,1074.60
2022-07-31T16:05:21.704Z,1079.53
2022-07-31T16:08:30.838Z,1079.13
2022-07-31T16:10:52.505Z,1073.50
2022-07-31T16:13:22.418Z,1074.25
2022-07-31T16:15:49.771Z,1074.28
2022-07-31T16:18:18.209Z,1072.25
2022-07-31T16:20:46.899Z,1079.20
2022-07-31T16:23:16.839Z,1065.93
2022-07-31T16:25:44.254Z,1076.53
2022-07-31T16:28:11.767Z,1073.25
2022-07-31T16:30:39.218Z,1072.40
2022-07-31T16:33:06.706Z,1072.80
2022-07-31T16:35:34.138Z,1073.30
2022-07-31T16:38:01.686Z,1073.55
2022-07-31T16:40:31.827Z,1067.47
2022-07-31T16:43:47.206Z,1061.60
2022-07-31T16:45:54.858Z,1064.88
2022-07-31T16:48:22.339Z,1067.38
2022-07-31T16:50:53.859Z,1064.20
2022-07-31T16:54:10.092Z,1067.78
2022-07-31T16:56:15.269Z,1068.80
2022-07-31T16:58:44.143Z,1062.57
2022-07-31T17:01:57.775Z,1062.70
2022-07-31T17:04:03.491Z,1065.25
2022-07-31T17:06:36.038Z,1072.88
2022-07-31T17:09:16.640Z,1073.65
2022-07-31T17:11:51.522Z,1067.85
2022-07-31T17:14:21.009Z,1070.30
2022-07-31T17:16:49.690Z,1072.47
2022-07-31T17:19:42.726Z,1076.75
2022-07-31T17:22:11.757Z,1055.78
2022-07-31T17:24:51.060Z,1064.55
2022-07-31T17:27:20.039Z,1054.63
2022-07-31T17:29:47.572Z,1064.35
2022-07-31T17:32:14.962Z,1060.00
2022-07-31T17:34:45.178Z,1057.32
2022-07-31T17:37:13.032Z,1056.30
2022-07-31T17:39:40.432Z,1064.05
2022-07-31T17:42:09.491Z,1058.85
2022-07-31T17:44:39.825Z,1061.68
2022-07-31T17:47:10.315Z,1056.13
2022-07-31T17:49:38.488Z,1057.55
2022-07-31T17:52:06.524Z,1041.15
2022-07-31T17:54:34.377Z,1040.53
2022-07-31T17:57:02.594Z,1035.20
2022-07-31T17:59:30.599Z,1041.72
2022-07-31T18:02:08.446Z,1043.70
2022-07-31T18:04:37.784Z,1034.95
2022-07-31T18:07:07.701Z,1039.60
2022-07-31T18:09:36.800Z,1041.85
2022-07-31T18:12:05.169Z,1037.72
2022-07-31T18:14:32.773Z,1025.28
2022-07-31T18:17:00.180Z,1030.90
2022-07-31T18:19:30.682Z,1031.90
2022-07-31T18:21:59.220Z,1037.63
2022-07-31T18:24:26.766Z,1032.47
2022-07-31T18:26:54.345Z,1026.90
2022-07-31T18:29:21.932Z,1026.85
2022-07-31T18:31:49.452Z,1026.97
2022-07-31T18:34:16.807Z,1022.70
2022-07-31T18:36:44.286Z,1024.60
2022-07-31T18:39:11.855Z,1019.38
2022-07-31T18:41:39.234Z,1028.20
2022-07-31T18:44:06.765Z,1023.38
2022-07-31T18:46:34.218Z,1022.00
2022-07-31T18:49:01.808Z,1029.35
2022-07-31T18:51:31.361Z,1023.95
2022-07-31T18:53:59.353Z,1022.92
2022-07-31T18:56:27.063Z,1015.75
2022-07-31T18:58:55.065Z,1010.40
2022-07-31T19:01:23.895Z,1012.70
2022-07-31T19:03:53.256Z,1009.78
2022-07-31T19:06:23.441Z,1003.72
2022-07-31T19:08:52.274Z,996.97
2022-07-31T19:11:27.833Z,1000.75
2022-07-31T19:13:55.551Z,996.20
2022-07-31T19:16:28.651Z,995.75
2022-07-31T19:18:56.605Z,994.83
2022-07-31T19:21:42.374Z,992.97
2022-07-31T19:24:10.476Z,983.80
2022-07-31T19:26:37.917Z,992.50
2022-07-31T19:29:05.586Z,987.85
2022-07-31T19:31:33.150Z,998.55
2022-07-31T19:34:00.999Z,991.67
2022-07-31T19:36:29.277Z,997.97
2022-07-31T19:38:56.812Z,991.22
2022-07-31T19:41:24.286Z,996.17
2022-07-31T19:43:51.652Z,997.20
2022-07-31T19:46:18.962Z,991.35
2022-07-31T19:48:47.231Z,979.05
2022-07-31T19:51:16.445Z,985.78
2022-07-31T19:53:45.343Z,980.75
2022-07-31T19:56:18.291Z,975.50
2022-07-31T19:58:47.861Z,967.08
2022-07-31T20:01:15.173Z,967.67
2022-07-31T20:03:42.867Z,966.50
2022-07-31T20:06:10.225Z,949.08
2022-07-31T20:08:37.630Z,939.47
2022-07-31T20:11:05.506Z,954.92
2022-07-31T20:13:34.730Z,957.05
2022-07-31T20:16:02.277Z,956.55
2022-07-31T20:18:30.895Z,955.28
2022-07-31T20:21:16.381Z,945.70
2022-07-31T20:23:44.511Z,942.45
2022-07-31T20:26:17.771Z,967.50
2022-07-31T20:28:45.408Z,942.80
2022-07-31T20:31:16.317Z,940.03
2022-07-31T20:33:57.434Z,942.83
2022-07-31T20:36:27.354Z,939.55
2022-07-31T20:38:55.509Z,942.70
2022-07-31T20:41:25.587Z,943.58
2022-07-31T20:43:52.932Z,937.63
2022-07-31T20:46:20.390Z,934.08
2022-07-31T20:48:50.078Z,935.15
2022-07-31T20:51:23.883Z,927.75
2022-07-31T20:53:53.290Z,929.05
2022-07-31T20:56:21.192Z,919.67
2022-07-31T20:58:51.702Z,923.75
2022-07-31T21:01:21.828Z,917.90
2022-07-31T21:03:49.983Z,919.38
2022-07-31T21:06:17.705Z,912.15
2022-07-31T21:08:45.814Z,913.80
2022-07-31T21:11:13.400Z,902.10
2022-07-31T21:13:42.193Z,912.55
2022-07-31T21:16:09.596Z,912.05
2022-07-31T21:18:41.221Z,906.53
2022-07-31T21:23:37.712Z,872.33
2022-07-31T21:26:07.833Z,883.47
2022-07-31T21:28:35.723Z,883.55
2022-07-31T21:31:03.462Z,868.08
2022-07-31T21:33:31.128Z,876.20
2022-07-31T21:35:59.095Z,879.83
2022-07-31T21:38:28.262Z,870.60
2022-07-31T21:40:55.885Z,880.38
2022-07-31T21:43:23.721Z,868.70
2022-07-31T21:45:57.210Z,863.10
2022-07-31T21:48:30.577Z,855.65
2022-07-31T21:50:58.912Z,863.95
2022-07-31T21:53:26.571Z,859.67
2022-07-31T21:55:54.396Z,854.88
2022-07-31T21:58:22.112Z,862.40
2022-07-31T22:00:49.581Z,855.90
2022-07-31T22:03:17.201Z,858.63
2022-07-31T22:06:03.099Z,860.95
2022-07-31T22:08:30.686Z,856.90
2022-07-31T22:10:58.177Z,860.30
2022-07-31T22:13:25.659Z,852.63
2022-07-31T22:16:00.103Z,855.97
2022-07-31T22:18:33.557Z,853.08
2022-07-31T22:21:06.486Z,855.88
2022-07-31T22:23:34.825Z,856.30
2022-07-31T22:26:02.567Z,853.45
2022-07-31T22:28:30.160Z,844.63
2022-07-31T22:30:58.687Z,846.90
2022-07-31T22:33:26.373Z,843.67
2022-07-31T22:35:59.495Z,843.13
2022-07-31T22:38:30.074Z,839.17
2022-07-31T22:40:59.762Z,841.38
2022-07-31T22:44:13.647Z,841.22
2022-07-31T22:46:16.219Z,844.40
2022-07-31T22:48:47.524Z,842.85
2022-07-31T22:51:15.730Z,840.85
2022-07-31T22:53:44.629Z,842.25
2022-07-31T22:56:17.166Z,846.10
2022-07-31T22:58:44.913Z,842.63
2022-07-31T23:01:12.404Z,843.20
2022-07-31T23:03:39.672Z,842.42
2022-07-31T23:06:31.716Z,840.70
2022-07-31T23:08:56.223Z,839.88
2022-07-31T23:11:24.969Z,846.55
2022-07-31T23:13:53.427Z,842.83
2022-07-31T23:16:21.112Z,841.05
2022-07-31T23:18:49.452Z,843.35
2022-07-31T23:21:27.514Z,838.17
2022-07-31T23:23:55.375Z,843.67
2022-07-31T23:26:24.677Z,845.35
2022-07-31T23:28:54.129Z,843.10
2022-07-31T23:31:21.866Z,838.92
2022-07-31T23:33:49.934Z,841.03
2022-07-31T23:36:18.086Z,843.53
2022-07-31T23:38:47.982Z,838.15
2022-07-31T23:41:15.962Z,839.38
2022-07-31T23:43:55.230Z,834.53
2022-07-31T23:46:26.971Z,829.72
2022-07-31T23:48:57.167Z,828.60
2022-07-31T23:51:26.983Z,830.78
2022-07-31T23:53:54.732Z,814.10
2022-07-31T23:56:22.529Z,815.20
2022-07-31T23:58:50.198Z,805.85
